createdAt,value
2019-05-20T00:00:23.456Z,15.93
2019-05-20T00:02:52.067Z,15.68
2019-05-20T00:05:20.625Z,16.82
2019-05-20T00:07:49.119Z,17.05
2019-05-20T00:10:17.571Z,17.92
2019-05-20T00:12:46.039Z,18.02
2019-05-20T00:15:14.609Z,18.65
2019-05-20T00:17:43.106Z,17.77
2019-05-20T00:20:11.763Z,17.12
2019-05-20T00:22:40.368Z,17.00
2019-05-20T00:25:09.251Z,18.30
2019-05-20T00:27:37.837Z,17.12
2019-05-20T00:30:07.669Z,17.37
2019-05-20T00:32:41.015Z,17.60
2019-05-20T00:35:07.770Z,17.77
2019-05-20T00:37:36.344Z,17.50
2019-05-20T00:40:09.375Z,17.95
2019-05-20T00:42:37.950Z,18.12
2019-05-20T00:45:06.944Z,17.25
2019-05-20T00:47:35.449Z,17.85
2019-05-20T00:50:05.363Z,18.05
2019-05-20T00:52:34.008Z,18.27
2019-05-20T00:55:02.611Z,18.67
2019-05-20T00:57:31.085Z,18.15
2019-05-20T00:59:59.619Z,18.90
2019-05-20T01:02:28.156Z,21.05
2019-05-20T01:04:56.694Z,18.55
2019-05-20T01:07:25.620Z,18.60
2019-05-20T01:09:54.200Z,18.45
2019-05-20T01:12:22.742Z,18.55
2019-05-20T01:14:51.688Z,18.87
2019-05-20T01:17:20.252Z,18.77
2019-05-20T01:19:48.823Z,19.20
2019-05-20T01:22:17.394Z,18.10
2019-05-20T01:24:45.857Z,19.02
2019-05-20T01:27:14.360Z,19.17
2019-05-20T01:29:42.927Z,18.42
2019-05-20T01:32:11.459Z,18.90
2019-05-20T01:34:39.961Z,19.12
2019-05-20T01:37:08.569Z,19.52
2019-05-20T01:39:37.145Z,19.20
2019-05-20T01:42:06.550Z,19.82
2019-05-20T01:44:35.114Z,21.50
2019-05-20T01:47:03.687Z,19.50
2019-05-20T01:49:32.276Z,19.67
2019-05-20T01:52:00.874Z,20.25
2019-05-20T01:54:29.411Z,20.27
2019-05-20T01:56:57.919Z,19.62
2019-05-20T01:59:26.534Z,19.75
2019-05-20T02:01:55.114Z,20.92
2019-05-20T02:04:23.680Z,19.98
2019-05-20T02:06:52.270Z,18.92
2019-05-20T02:09:20.812Z,20.30
2019-05-20T02:11:49.351Z,19.05
2019-05-20T02:14:25.814Z,19.50
2019-05-20T02:16:54.357Z,19.57
2019-05-20T02:19:22.924Z,20.00
2019-05-20T02:21:51.513Z,19.42
2019-05-20T02:24:20.088Z,20.37
2019-05-20T02:26:48.639Z,18.23
2019-05-20T02:29:17.236Z,20.95
2019-05-20T02:31:45.810Z,18.80
2019-05-20T02:34:14.388Z,18.80
2019-05-20T02:36:42.982Z,19.48
2019-05-20T02:39:11.853Z,18.73
2019-05-20T02:41:40.422Z,19.87
2019-05-20T02:44:09.043Z,19.15
2019-05-20T02:46:37.640Z,19.80
2019-05-20T02:49:06.142Z,19.02
2019-05-20T02:51:34.682Z,19.50
2019-05-20T02:54:03.467Z,19.37
2019-05-20T02:56:32.188Z,18.15
2019-05-20T02:59:01.316Z,19.62
2019-05-20T03:01:29.933Z,19.85
2019-05-20T03:04:10.849Z,19.55
2019-05-20T03:06:30.456Z,18.73
2019-05-20T03:08:59.004Z,18.40
2019-05-20T03:11:27.506Z,20.37
2019-05-20T03:13:56.085Z,19.92
2019-05-20T03:16:24.668Z,18.50
2019-05-20T03:18:53.230Z,19.23
2019-05-20T03:21:21.797Z,19.25
2019-05-20T03:23:50.338Z,17.92
2019-05-20T03:26:18.833Z,18.87
2019-05-20T03:28:47.454Z,18.15
2019-05-20T03:31:15.997Z,20.32
2019-05-20T03:33:44.533Z,19.57
2019-05-20T03:36:13.153Z,17.30
2019-05-20T03:38:41.701Z,16.73
2019-05-20T03:41:10.234Z,15.95
2019-05-20T03:43:38.744Z,18.00
2019-05-20T03:46:07.263Z,15.70
2019-05-20T03:48:35.801Z,14.18
2019-05-20T03:51:04.424Z,13.88
2019-05-20T03:53:33.006Z,14.43
2019-05-20T03:56:01.615Z,13.25
2019-05-20T03:58:30.170Z,13.38
2019-05-20T04:00:58.771Z,13.18
2019-05-20T04:03:27.348Z,13.50
2019-05-20T04:05:55.924Z,13.10
2019-05-20T04:08:24.396Z,12.93
2019-05-20T04:10:52.873Z,13.13
2019-05-20T04:13:21.440Z,12.40
2019-05-20T04:15:49.979Z,12.20
2019-05-20T04:18:18.558Z,12.65
2019-05-20T04:20:47.175Z,12.68
2019-05-20T04:23:15.784Z,13.05
2019-05-20T04:25:44.314Z,12.33
2019-05-20T04:28:12.916Z,12.40
2019-05-20T04:30:41.931Z,11.38
2019-05-20T04:33:10.536Z,12.20
2019-05-20T04:35:39.494Z,12.15
2019-05-20T04:38:08.024Z,10.40
2019-05-20T04:40:36.563Z,10.40
2019-05-20T04:43:05.098Z,10.50
2019-05-20T04:45:33.623Z,10.05
2019-05-20T04:48:02.179Z,9.23
2019-05-20T04:50:30.822Z,10.10
2019-05-20T04:52:59.331Z,9.80
2019-05-20T04:55:27.865Z,8.83
2019-05-20T04:57:56.426Z,9.85
2019-05-20T05:00:49.398Z,8.25
2019-05-20T05:03:18.005Z,9.23
2019-05-20T05:05:46.830Z,7.85
2019-05-20T05:08:15.759Z,8.03
2019-05-20T05:10:44.435Z,8.00
2019-05-20T05:13:12.998Z,7.40
2019-05-20T05:15:41.575Z,7.47
2019-05-20T05:18:10.133Z,7.60
2019-05-20T05:20:38.706Z,7.60
2019-05-20T05:23:07.263Z,7.70
2019-05-20T05:25:36.587Z,7.70
2019-05-20T05:28:05.867Z,7.78
2019-05-20T05:30:35.771Z,7.78
2019-05-20T05:33:04.822Z,7.05
2019-05-20T05:35:33.359Z,7.47
2019-05-20T05:38:02.800Z,7.45
2019-05-20T05:40:32.219Z,6.67
2019-05-20T05:43:00.698Z,7.97
2019-05-20T05:45:31.877Z,6.60
2019-05-20T05:48:01.221Z,6.78
2019-05-20T05:50:29.955Z,7.35
2019-05-20T05:52:58.547Z,6.78
2019-05-20T05:55:27.115Z,6.80
2019-05-20T05:57:55.614Z,6.42
2019-05-20T06:00:24.612Z,6.97
2019-05-20T06:02:53.213Z,6.35
2019-05-20T06:05:21.781Z,6.75
2019-05-20T06:07:50.351Z,6.65
2019-05-20T06:10:19.728Z,6.65
2019-05-20T06:12:48.335Z,7.10
2019-05-20T06:15:17.676Z,6.50
2019-05-20T06:17:46.299Z,6.65
2019-05-20T06:20:16.570Z,6.60
2019-05-20T06:22:45.236Z,6.90
2019-05-20T06:25:14.302Z,6.80
2019-05-20T06:27:42.875Z,6.97
2019-05-20T06:30:12.910Z,7.08
2019-05-20T06:32:41.871Z,7.20
2019-05-20T06:35:11.322Z,7.75
2019-05-20T06:37:56.943Z,7.40
2019-05-20T06:40:25.524Z,7.25
2019-05-20T06:42:54.822Z,7.42
2019-05-20T06:45:23.439Z,7.08
2019-05-20T06:47:52.012Z,7.03
2019-05-20T06:50:20.611Z,7.42
2019-05-20T06:52:49.173Z,7.67
2019-05-20T06:55:17.832Z,7.67
2019-05-20T06:57:46.543Z,7.47
2019-05-20T07:00:18.173Z,8.60
2019-05-20T07:02:46.848Z,7.65
2019-05-20T07:05:15.755Z,7.62
2019-05-20T07:07:44.287Z,7.80
2019-05-20T07:10:12.945Z,7.62
2019-05-20T07:12:41.939Z,7.55
2019-05-20T07:15:11.207Z,7.17
2019-05-20T07:17:39.694Z,7.20
2019-05-20T07:20:08.685Z,7.70
2019-05-20T07:22:54.577Z,7.50
2019-05-20T07:25:08.244Z,7.75
2019-05-20T07:27:36.788Z,7.87
2019-05-20T07:30:09.299Z,7.08
2019-05-20T07:32:37.847Z,7.42
2019-05-20T07:35:07.554Z,8.15
2019-05-20T07:37:36.674Z,7.30
2019-05-20T07:40:06.888Z,7.72
2019-05-20T07:42:35.561Z,7.30
2019-05-20T07:45:06.489Z,7.28
2019-05-20T07:47:35.674Z,6.70
2019-05-20T07:50:08.822Z,7.80
2019-05-20T07:55:07.524Z,7.85
2019-05-20T07:57:39.036Z,7.53
2019-05-20T08:00:10.779Z,8.10
2019-05-20T08:02:39.809Z,8.13
2019-05-20T08:05:09.533Z,8.00
2019-05-20T08:07:51.492Z,7.47
2019-05-20T08:10:09.060Z,7.53
2019-05-20T08:12:37.687Z,6.92
2019-05-20T08:15:08.143Z,7.67
2019-05-20T08:17:36.779Z,7.17
2019-05-20T08:20:07.293Z,7.80
2019-05-20T08:22:35.946Z,6.70
2019-05-20T08:25:06.608Z,7.28
2019-05-20T08:27:35.272Z,7.95
2019-05-20T08:30:06.590Z,7.50
2019-05-20T08:32:35.129Z,7.10
2019-05-20T08:35:05.133Z,7.17
2019-05-20T08:37:44.858Z,6.53
2019-05-20T08:40:05.193Z,6.42
2019-05-20T08:42:33.733Z,6.45
2019-05-20T08:45:03.059Z,5.80
2019-05-20T08:47:33.061Z,5.90
2019-05-20T08:50:03.954Z,6.40
2019-05-20T08:52:32.039Z,6.53
2019-05-20T08:55:00.521Z,5.62
2019-05-20T08:57:29.108Z,5.42
2019-05-20T08:59:57.707Z,5.83
2019-05-20T09:02:26.249Z,5.25
2019-05-20T09:04:54.783Z,5.95
2019-05-20T09:07:23.420Z,5.33
2019-05-20T09:09:51.967Z,6.20
2019-05-20T09:12:20.552Z,6.20
2019-05-20T09:14:49.148Z,6.50
2019-05-20T09:17:17.827Z,6.30
2019-05-20T09:19:47.267Z,6.58
2019-05-20T09:22:16.009Z,6.90
2019-05-20T09:24:45.689Z,6.92
2019-05-20T09:27:14.479Z,6.83
2019-05-20T09:29:43.393Z,7.17
2019-05-20T09:32:12.202Z,6.30
2019-05-20T09:34:41.780Z,6.47
2019-05-20T09:37:10.356Z,6.67
2019-05-20T09:39:38.903Z,6.87
2019-05-20T09:42:07.480Z,7.22
2019-05-20T09:44:36.087Z,6.33
2019-05-20T09:47:04.657Z,5.97
2019-05-20T09:49:33.428Z,6.20
2019-05-20T09:52:02.240Z,5.70
2019-05-20T09:54:30.805Z,6.15
2019-05-20T09:56:59.348Z,6.62
2019-05-20T09:59:42.159Z,6.65
2019-05-20T10:01:58.108Z,7.25
2019-05-20T10:04:26.769Z,6.58
2019-05-20T10:06:55.321Z,6.67
2019-05-20T10:09:24.062Z,6.58
2019-05-20T10:11:52.722Z,6.75
2019-05-20T10:14:21.317Z,6.87
2019-05-20T10:16:49.972Z,6.75
2019-05-20T10:19:18.546Z,6.00
2019-05-20T10:21:47.130Z,5.78
2019-05-20T10:24:15.648Z,6.40
2019-05-20T10:26:44.183Z,7.00
2019-05-20T10:29:12.684Z,6.42
2019-05-20T10:31:41.320Z,7.00
2019-05-20T10:34:09.880Z,6.72
2019-05-20T10:36:38.461Z,7.12
2019-05-20T10:39:08.434Z,7.42
2019-05-20T10:41:37.523Z,7.03
2019-05-20T10:44:06.093Z,7.75
2019-05-20T10:46:34.731Z,8.10
2019-05-20T10:49:03.333Z,6.87
2019-05-20T10:51:31.939Z,7.00
2019-05-20T10:54:00.881Z,7.33
2019-05-20T10:56:29.675Z,7.58
2019-05-20T10:58:58.236Z,6.85
2019-05-20T11:01:26.789Z,6.40
2019-05-20T11:03:55.360Z,6.90
2019-05-20T11:06:23.945Z,7.22
2019-05-20T11:08:52.589Z,6.92
2019-05-20T11:11:21.149Z,8.28
2019-05-20T11:13:49.720Z,7.90
2019-05-20T11:16:18.382Z,7.92
2019-05-20T11:18:46.891Z,7.83
2019-05-20T11:21:15.901Z,7.53
2019-05-20T11:23:44.445Z,7.72
2019-05-20T11:26:13.020Z,7.80
2019-05-20T11:28:43.124Z,7.78
2019-05-20T11:31:11.660Z,7.58
2019-05-20T11:33:40.245Z,6.95
2019-05-20T11:36:08.810Z,8.15
2019-05-20T11:38:37.348Z,8.88
2019-05-20T11:41:05.824Z,9.63
2019-05-20T11:43:34.440Z,9.30
2019-05-20T11:46:02.976Z,10.23
2019-05-20T11:48:31.520Z,11.57
2019-05-20T11:51:00.050Z,12.15
2019-05-20T11:53:28.660Z,13.05
2019-05-20T11:55:57.129Z,12.85
2019-05-20T11:58:25.660Z,12.53
2019-05-20T12:00:54.207Z,13.32
2019-05-20T12:03:22.755Z,13.85
2019-05-20T12:05:51.392Z,14.50
2019-05-20T12:08:19.937Z,13.88
2019-05-20T12:10:48.484Z,13.90
2019-05-20T12:13:17.063Z,14.38
2019-05-20T12:15:45.618Z,13.62
2019-05-20T12:18:15.100Z,13.05
2019-05-20T12:20:43.715Z,12.90
2019-05-20T12:23:12.261Z,12.40
2019-05-20T12:25:40.769Z,12.93
2019-05-20T12:28:09.413Z,13.00
2019-05-20T12:30:38.315Z,12.93
2019-05-20T12:33:18.552Z,13.70
2019-05-20T12:35:37.478Z,13.32
2019-05-20T12:38:06.070Z,13.08
2019-05-20T12:40:34.636Z,12.28
2019-05-20T12:43:03.816Z,11.73
2019-05-20T12:45:32.363Z,12.25
2019-05-20T12:48:00.945Z,12.73
2019-05-20T12:50:29.623Z,11.85
2019-05-20T12:52:58.172Z,12.40
2019-05-20T12:55:26.699Z,11.65
2019-05-20T12:57:55.217Z,10.13
2019-05-20T13:00:24.256Z,10.98
2019-05-20T13:02:52.830Z,9.13
2019-05-20T13:05:21.465Z,9.18
2019-05-20T13:07:49.928Z,7.12
2019-05-20T13:10:29.771Z,6.67
2019-05-20T13:12:48.977Z,6.78
2019-05-20T13:15:17.964Z,6.03
2019-05-20T13:17:46.543Z,6.70
2019-05-20T13:20:15.665Z,7.67
2019-05-20T13:22:44.328Z,7.58
2019-05-20T13:25:13.352Z,7.35
2019-05-20T13:27:41.961Z,8.55
2019-05-20T13:30:11.951Z,7.92
2019-05-20T13:32:40.546Z,7.22
2019-05-20T13:35:09.765Z,6.55
2019-05-20T13:37:38.329Z,6.90
2019-05-20T13:40:07.908Z,6.95
2019-05-20T13:42:36.679Z,7.67
2019-05-20T13:45:06.771Z,11.03
2019-05-20T13:47:35.624Z,7.72
2019-05-20T13:50:07.287Z,7.42
2019-05-20T13:52:35.882Z,7.92
2019-05-20T13:55:05.425Z,7.08
2019-05-20T13:57:34.463Z,7.37
2019-05-20T14:00:03.247Z,9.28
2019-05-20T14:02:31.779Z,11.08
2019-05-20T14:05:00.391Z,9.25
2019-05-20T14:07:28.969Z,8.75
2019-05-20T14:09:57.542Z,10.25
2019-05-20T14:12:26.158Z,10.40
2019-05-20T14:14:54.704Z,10.85
2019-05-20T14:17:23.210Z,10.08
2019-05-20T14:19:51.821Z,9.75
2019-05-20T14:22:20.385Z,10.20
2019-05-20T14:24:48.916Z,9.45
2019-05-20T14:27:17.641Z,10.53
2019-05-20T14:29:46.188Z,9.25
2019-05-20T14:32:14.714Z,8.78
2019-05-20T14:34:43.412Z,6.55
2019-05-20T14:37:11.987Z,6.60
2019-05-20T14:39:40.565Z,6.83
2019-05-20T14:42:09.448Z,7.25
2019-05-20T14:44:37.999Z,6.40
2019-05-20T14:47:06.571Z,6.17
2019-05-20T14:49:35.196Z,6.92
2019-05-20T14:52:03.897Z,5.92
2019-05-20T14:54:32.471Z,7.08
2019-05-20T14:57:01.072Z,7.53
2019-05-20T14:59:31.133Z,7.05
2019-05-20T15:01:59.728Z,4.33
2019-05-20T15:04:28.320Z,3.70
2019-05-20T15:06:56.884Z,3.37
2019-05-20T15:09:25.545Z,3.70
2019-05-20T15:11:54.357Z,3.95
2019-05-20T15:14:22.896Z,5.67
2019-05-20T15:16:51.363Z,7.70
2019-05-20T15:19:19.951Z,7.37
2019-05-20T15:21:48.572Z,8.03
2019-05-20T15:24:17.083Z,11.63
2019-05-20T15:26:46.030Z,10.68
2019-05-20T15:29:27.603Z,14.55
2019-05-20T15:31:44.844Z,11.43
2019-05-20T15:34:13.409Z,12.73
2019-05-20T15:36:41.983Z,11.50
2019-05-20T15:39:10.787Z,9.43
2019-05-20T15:41:39.324Z,7.67
2019-05-20T15:44:07.848Z,7.12
2019-05-20T15:46:36.421Z,6.03
2019-05-20T15:49:05.098Z,6.12
2019-05-20T15:51:33.670Z,4.90
2019-05-20T15:54:02.294Z,6.20
2019-05-20T15:56:31.613Z,6.25
2019-05-20T15:59:00.082Z,9.45
2019-05-20T16:01:28.771Z,14.58
2019-05-20T16:03:57.383Z,17.27
2019-05-20T16:06:25.997Z,17.92
2019-05-20T16:08:54.564Z,16.90
2019-05-20T16:11:23.156Z,20.00
2019-05-20T16:13:51.845Z,16.45
2019-05-20T16:16:20.478Z,10.95
2019-05-20T16:18:49.054Z,9.85
2019-05-20T16:21:17.598Z,11.60
2019-05-20T16:23:46.097Z,13.32
2019-05-20T16:26:14.671Z,10.98
2019-05-20T16:28:43.250Z,14.33
2019-05-20T16:31:11.936Z,24.60
2019-05-20T16:33:40.535Z,11.60
2019-05-20T16:36:09.076Z,10.63
2019-05-20T16:38:37.558Z,10.98
2019-05-20T16:41:06.229Z,8.33
2019-05-20T16:43:34.817Z,14.70
2019-05-20T16:46:03.380Z,12.03
2019-05-20T16:48:31.973Z,8.93
2019-05-20T16:51:00.535Z,9.75
2019-05-20T16:53:29.107Z,9.90
2019-05-20T16:55:58.476Z,10.10
2019-05-20T16:58:27.002Z,10.15
2019-05-20T17:00:55.480Z,10.90
2019-05-20T17:03:24.098Z,10.45
2019-05-20T17:05:52.632Z,9.60
2019-05-20T17:08:21.153Z,10.65
2019-05-20T17:10:49.687Z,13.43
2019-05-20T17:13:18.256Z,12.63
2019-05-20T17:15:46.828Z,16.50
2019-05-20T17:18:15.422Z,13.22
2019-05-20T17:20:46.131Z,14.63
2019-05-20T17:23:14.214Z,13.55
2019-05-20T17:25:42.837Z,13.75
2019-05-20T17:28:11.382Z,13.60
2019-05-20T17:30:45.359Z,12.20
2019-05-20T17:33:10.195Z,13.40
2019-05-20T17:35:38.740Z,10.90
2019-05-20T17:38:07.520Z,10.20
2019-05-20T17:40:36.349Z,10.45
2019-05-20T17:43:05.339Z,11.45
2019-05-20T17:45:33.858Z,11.12
2019-05-20T17:48:02.538Z,12.25
2019-05-20T17:50:31.141Z,13.22
2019-05-20T17:52:59.769Z,13.60
2019-05-20T17:55:29.767Z,16.67
2019-05-20T17:57:58.508Z,13.85
2019-05-20T18:00:27.053Z,13.22
2019-05-20T18:02:55.654Z,13.65
2019-05-20T18:05:24.231Z,20.60
2019-05-20T18:07:52.872Z,39.20
2019-05-20T18:10:23.084Z,16.93
2019-05-20T18:12:51.657Z,15.55
2019-05-20T18:15:20.871Z,15.95
2019-05-20T18:17:49.527Z,17.57
2019-05-20T18:20:18.212Z,18.40
2019-05-20T18:22:46.720Z,17.75
2019-05-20T18:25:15.747Z,20.10
2019-05-20T18:27:44.311Z,18.60
2019-05-20T18:30:13.965Z,20.30
2019-05-20T18:32:42.550Z,20.95
2019-05-20T18:35:11.861Z,19.80
2019-05-20T18:37:44.151Z,25.88
2019-05-20T18:40:15.104Z,22.52
2019-05-20T18:42:44.018Z,22.07
2019-05-20T18:45:13.091Z,25.17
2019-05-20T18:47:41.946Z,22.58
2019-05-20T18:50:11.066Z,24.60
2019-05-20T18:52:39.723Z,22.30
2019-05-20T18:55:08.714Z,29.67
2019-05-20T18:57:37.186Z,21.90
2019-05-20T19:00:08.932Z,20.80
2019-05-20T19:02:38.192Z,19.12
2019-05-20T19:05:07.569Z,20.77
2019-05-20T19:07:36.175Z,22.90
2019-05-20T19:10:06.097Z,25.68
2019-05-20T19:12:34.671Z,26.65
2019-05-20T19:15:03.755Z,26.12
2019-05-20T19:17:32.677Z,26.77
2019-05-20T19:20:01.452Z,24.40
2019-05-20T19:22:30.222Z,23.18
2019-05-20T19:24:58.785Z,22.20
2019-05-20T19:27:27.376Z,19.07
2019-05-20T19:29:55.907Z,19.95
2019-05-20T19:32:24.609Z,20.65
2019-05-20T19:34:53.180Z,21.55
2019-05-20T19:37:21.733Z,20.95
2019-05-20T19:39:50.291Z,21.85
2019-05-20T19:42:19.000Z,20.92
2019-05-20T19:44:47.741Z,23.42
2019-05-20T19:47:16.337Z,35.03
2019-05-20T19:49:44.906Z,25.70
2019-05-20T19:52:13.491Z,26.60
2019-05-20T19:54:42.069Z,26.97
2019-05-20T19:57:10.652Z,26.60
2019-05-20T19:59:39.195Z,26.62
2019-05-20T20:02:16.852Z,26.20
2019-05-20T20:04:37.991Z,28.12
2019-05-20T20:07:06.497Z,27.27
2019-05-20T20:09:35.220Z,22.27
2019-05-20T20:12:03.784Z,22.02
2019-05-20T20:14:32.420Z,20.85
2019-05-20T20:17:01.017Z,21.48
2019-05-20T20:19:29.495Z,21.70
2019-05-20T20:21:58.021Z,23.07
2019-05-20T20:24:27.142Z,23.65
2019-05-20T20:26:55.636Z,24.12
2019-05-20T20:29:24.184Z,25.20
2019-05-20T20:31:52.685Z,24.07
2019-05-20T20:34:21.260Z,26.00
2019-05-20T20:36:49.901Z,28.27
2019-05-20T20:39:18.496Z,28.98
2019-05-20T20:41:46.974Z,30.25
2019-05-20T20:44:15.516Z,29.12
2019-05-20T20:46:44.025Z,25.97
2019-05-20T20:49:14.770Z,24.35
2019-05-20T20:51:42.826Z,25.08
2019-05-20T20:54:11.440Z,26.37
2019-05-20T20:56:39.995Z,22.67
2019-05-20T20:59:08.588Z,23.05
2019-05-20T21:01:37.151Z,20.12
2019-05-20T21:04:05.762Z,19.25
2019-05-20T21:06:34.445Z,16.40
2019-05-20T21:09:03.851Z,19.27
2019-05-20T21:11:32.357Z,18.10
2019-05-20T21:14:00.887Z,19.23
2019-05-20T21:16:29.794Z,17.57
2019-05-20T21:18:58.347Z,16.37
2019-05-20T21:21:26.924Z,18.32
2019-05-20T21:23:55.541Z,18.00
2019-05-20T21:26:24.073Z,18.40
2019-05-20T21:28:52.620Z,16.52
2019-05-20T21:31:21.262Z,16.12
2019-05-20T21:33:49.844Z,15.85
2019-05-20T21:36:18.374Z,15.10
2019-05-20T21:38:46.943Z,15.08
2019-05-20T21:41:15.407Z,14.73
2019-05-20T21:43:43.919Z,15.72
2019-05-20T21:46:12.544Z,14.33
2019-05-20T21:48:41.077Z,15.93
2019-05-20T21:51:09.630Z,13.98
2019-05-20T21:53:38.207Z,14.05
2019-05-20T21:56:06.748Z,13.28
2019-05-20T21:58:35.326Z,13.90
2019-05-20T22:01:04.025Z,13.05
2019-05-20T22:03:32.526Z,13.30
2019-05-20T22:06:01.078Z,13.22
2019-05-20T22:08:29.976Z,13.32
2019-05-20T22:10:58.506Z,13.00
2019-05-20T22:13:27.081Z,13.35
2019-05-20T22:15:55.698Z,13.85
2019-05-20T22:18:24.268Z,14.00
2019-05-20T22:20:52.887Z,13.65
2019-05-20T22:23:23.071Z,14.55
2019-05-20T22:25:52.925Z,13.65
2019-05-20T22:28:21.489Z,14.03
2019-05-20T22:30:50.090Z,13.03
2019-05-20T22:33:18.883Z,13.95
2019-05-20T22:35:47.568Z,13.35
2019-05-20T22:38:16.128Z,13.90
2019-05-20T22:40:45.917Z,14.70
2019-05-20T22:43:14.453Z,13.45
2019-05-20T22:45:42.996Z,13.00
2019-05-20T22:48:11.588Z,13.30
2019-05-20T22:50:40.182Z,12.00
2019-05-20T22:53:08.788Z,12.75
2019-05-20T22:55:37.560Z,12.78
2019-05-20T22:58:06.382Z,12.73
2019-05-20T23:00:34.951Z,12.70
2019-05-20T23:03:03.499Z,12.75
2019-05-20T23:05:32.101Z,12.30
2019-05-20T23:08:00.637Z,12.63
2019-05-20T23:10:29.482Z,12.73
2019-05-20T23:12:58.059Z,13.08
2019-05-20T23:15:26.667Z,13.08
2019-05-20T23:17:55.205Z,12.98
2019-05-20T23:20:23.779Z,12.58
2019-05-20T23:22:52.387Z,12.03
2019-05-20T23:25:20.922Z,12.18
2019-05-20T23:27:49.416Z,11.28
2019-05-20T23:30:18.363Z,11.80
2019-05-20T23:32:46.985Z,12.10
2019-05-20T23:35:15.628Z,12.55
2019-05-20T23:37:44.225Z,12.65
2019-05-20T23:40:13.341Z,12.82
2019-05-20T23:42:41.873Z,13.43
2019-05-20T23:45:11.418Z,14.18
2019-05-20T23:47:39.989Z,13.88
2019-05-20T23:50:08.628Z,13.78
2019-05-20T23:52:37.205Z,13.88
2019-05-20T23:55:07.921Z,13.72
2019-05-20T23:57:36.558Z,13.53
